WDH weather

Hosea Kutako International Airport
Windhoek, Khomas Region, Namibia

Public forecast

Using degrees Celsius for public forecast. Weather courtesy of forecast.io.

METAR (pilot weather report)

Retrieved 2018/10/17 01:00 UTC (2 hours ago):

FYWH 170100Z AUTO 24002KT //// // ////// 12/M16 Q1023

TAF (pilot weather forecast)

Forecast is more than 12 hours old.

Retrieved 2018/10/16 00:00 UTC (1 day ago):

TAF FYWH 162200Z 1700/1800 00000KT CAVOK BECMG 1707/1709 08011KT BECMG 1711/1713 30007KT